createdAt,value
2023-04-07T00:00:00.473Z,101509.78
2023-04-07T00:02:30.595Z,101514.16
2023-04-07T00:04:58.700Z,101518.44
2023-04-07T00:07:27.844Z,101520.22
2023-04-07T00:09:54.928Z,101517.69
2023-04-07T00:12:21.783Z,101514.28
2023-04-07T00:14:48.471Z,101513.34
2023-04-07T00:17:15.286Z,101518.72
2023-04-07T00:19:42.953Z,101514.47
2023-04-07T00:22:11.225Z,101521.44
2023-04-07T00:24:37.707Z,101521.56
2023-04-07T00:27:07.329Z,101516.34
2023-04-07T00:29:33.901Z,101520.72
2023-04-07T00:32:00.581Z,101520.72
2023-04-07T00:34:27.148Z,101521.59
2023-04-07T00:36:53.984Z,101526.78
2023-04-07T00:39:21.392Z,101519.84
2023-04-07T00:41:48.404Z,101519.09
2023-04-07T00:44:15.008Z,101523.44
2023-04-07T00:46:42.150Z,101519.13
2023-04-07T00:49:11.210Z,101519.13
2023-04-07T00:51:38.188Z,101518.34
2023-04-07T00:54:21.275Z,101527.94
2023-04-07T00:56:48.141Z,101520.97
2023-04-07T01:02:54.848Z,101525.31
2023-04-07T01:09:45.251Z,101530.59
2023-04-07T01:18:43.047Z,101527.25
2023-04-07T01:22:00.365Z,101529.06
2023-04-07T01:28:32.515Z,101532.34
2023-04-07T01:28:35.302Z,101528.16
2023-04-07T01:40:43.766Z,101528.94
2023-04-07T01:43:17.833Z,101528.16
2023-04-07T01:46:30.279Z,101531.53
2023-04-07T01:57:44.099Z,101525.56
2023-04-07T02:06:44.030Z,101523.69
2023-04-07T02:21:36.696Z,101525.50
2023-04-07T02:27:41.546Z,101535.91
2023-04-07T02:37:41.517Z,101535.06
2023-04-07T02:41:08.380Z,101529.84
2023-04-07T03:03:45.299Z,101535.97
2023-04-07T03:07:44.251Z,101539.34
2023-04-07T03:10:53.623Z,101539.34
2023-04-07T03:13:31.192Z,101539.44
2023-04-07T03:16:02.889Z,101549.78
2023-04-07T03:18:37.528Z,101544.69
2023-04-07T03:21:08.295Z,101547.28
2023-04-07T03:23:42.032Z,101541.19
2023-04-07T03:26:14.416Z,101535.13
2023-04-07T03:28:41.017Z,101538.59
2023-04-07T03:31:22.891Z,101540.34
2023-04-07T03:33:56.269Z,101537.78
2023-04-07T03:36:30.951Z,101549.06
2023-04-07T03:39:07.531Z,101556.81
2023-04-07T03:41:39.616Z,101548.09
2023-04-07T04:14:02.104Z,101552.56
2023-04-07T04:17:28.840Z,101549.13
2023-04-07T04:20:05.449Z,101555.25
2023-04-07T04:23:08.076Z,101551.72
2023-04-07T04:25:34.873Z,101558.75
2023-04-07T04:28:21.449Z,101560.50
2023-04-07T04:31:15.970Z,101567.41
2023-04-07T04:37:16.475Z,101566.50
2023-04-07T04:39:43.112Z,101572.56
2023-04-07T04:42:16.329Z,101576.84
2023-04-07T04:48:43.301Z,101583.81
2023-04-07T04:51:44.280Z,101587.34
2023-04-07T05:01:34.161Z,101598.63
2023-04-07T05:55:49.142Z,101614.25
2023-04-07T05:58:37.868Z,101620.28
2023-04-07T06:01:04.654Z,101622.06
2023-04-07T06:03:31.855Z,101625.56
2023-04-07T06:05:58.676Z,101633.31
2023-04-07T06:08:25.463Z,101628.03
2023-04-07T06:10:52.135Z,101641.00
2023-04-07T06:13:23.687Z,101641.97
2023-04-07T06:15:52.331Z,101645.38
2023-04-07T06:18:19.238Z,101641.00
2023-04-07T06:20:48.728Z,101638.34
2023-04-07T06:23:17.021Z,101644.34
2023-04-07T06:25:43.849Z,101636.44
2023-04-07T06:28:11.053Z,101646.78
2023-04-07T06:30:37.774Z,101650.97
2023-04-07T06:33:05.035Z,101651.88
2023-04-07T06:35:32.273Z,101656.31
2023-04-07T06:37:58.927Z,101656.34
2023-04-07T06:40:29.466Z,101655.47
2023-04-07T06:42:56.646Z,101652.72
2023-04-07T06:45:23.700Z,101653.53
2023-04-07T06:47:52.304Z,101649.84
2023-04-07T06:50:20.927Z,101665.25
2023-04-07T06:52:47.856Z,101660.66
2023-04-07T06:55:14.505Z,101669.97
2023-04-07T06:57:41.181Z,101668.88
2023-04-07T07:00:09.174Z,101676.47
2023-04-07T07:02:36.118Z,101666.78
2023-04-07T07:05:04.779Z,101673.63
2023-04-07T07:07:31.364Z,101676.25
2023-04-07T07:10:05.665Z,101676.25
2023-04-07T07:12:36.479Z,101677.81
2023-04-07T07:15:03.741Z,101682.59
2023-04-07T07:17:35.660Z,101678.63
2023-04-07T07:20:02.389Z,101678.25
2023-04-07T07:22:29.223Z,101680.94
2023-04-07T07:25:01.672Z,101683.59
2023-04-07T07:27:29.673Z,101691.28
2023-04-07T07:30:00.077Z,101693.31
2023-04-07T07:32:26.814Z,101696.72
2023-04-07T07:34:54.385Z,101694.84
2023-04-07T07:37:27.045Z,101703.63
2023-04-07T07:40:13.692Z,101701.22
2023-04-07T07:42:41.395Z,101704.78
2023-04-07T07:47:17.453Z,101708.25
2023-04-07T07:49:30.125Z,101709.03
2023-04-07T08:02:25.151Z,101710.34
2023-04-07T08:05:00.994Z,101725.75
2023-04-07T08:07:27.612Z,101725.88
2023-04-07T08:09:57.598Z,101728.44
2023-04-07T08:12:25.441Z,101722.31
2023-04-07T08:14:52.063Z,101726.34
2023-04-07T08:17:20.721Z,101729.22
2023-04-07T08:19:47.405Z,101729.66
2023-04-07T08:22:14.169Z,101739.38
2023-04-07T08:24:41.179Z,101726.09
2023-04-07T08:27:07.981Z,101738.13
2023-04-07T08:29:35.029Z,101739.13
2023-04-07T08:32:02.131Z,101738.38
2023-04-07T08:34:28.877Z,101740.09
2023-04-07T08:36:55.561Z,101741.41
2023-04-07T08:39:22.979Z,101748.03
2023-04-07T08:41:50.745Z,101753.13
2023-04-07T08:44:20.682Z,101744.00
2023-04-07T08:46:49.412Z,101740.28
2023-04-07T08:49:20.214Z,101749.09
2023-04-07T08:51:48.585Z,101746.47
2023-04-07T08:54:28.283Z,101749.94
2023-04-07T08:57:22.114Z,101756.44
2023-04-07T08:59:51.457Z,101756.63
2023-04-07T09:02:20.462Z,101761.22
2023-04-07T09:04:47.675Z,101763.13
2023-04-07T09:07:14.707Z,101770.25
2023-04-07T09:10:04.917Z,101773.72
2023-04-07T09:16:31.512Z,101770.88
2023-04-07T09:18:58.709Z,101778.16
2023-04-07T09:31:55.426Z,101779.69
2023-04-07T09:34:40.922Z,101777.88
2023-04-07T09:41:03.276Z,101779.66
2023-04-07T09:43:41.230Z,101782.31
2023-04-07T09:46:55.543Z,101780.78
2023-04-07T09:49:56.420Z,101783.59
2023-04-07T10:34:51.194Z,101809.28
2023-04-07T10:37:21.098Z,101816.22
2023-04-07T10:39:52.766Z,101820.59
2023-04-07T10:42:37.642Z,101817.94
2023-04-07T10:45:09.767Z,101817.94
2023-04-07T10:47:59.282Z,101822.22
2023-04-07T10:50:25.984Z,101829.81
2023-04-07T10:53:09.583Z,101825.34
2023-04-07T10:55:46.557Z,101830.66
2023-04-07T10:58:16.241Z,101824.44
2023-04-07T11:01:04.083Z,101831.56
2023-04-07T11:03:34.087Z,101828.03
2023-04-07T11:06:11.240Z,101832.47
2023-04-07T11:08:44.205Z,101836.72
2023-04-07T11:11:15.382Z,101833.47
2023-04-07T11:13:49.317Z,101832.00
2023-04-07T11:16:20.245Z,101835.81
2023-04-07T11:18:48.190Z,101838.50
2023-04-07T11:21:19.496Z,101838.50
2023-04-07T11:23:47.699Z,101847.81
2023-04-07T11:26:15.674Z,101844.06
2023-04-07T11:28:51.435Z,101844.56
2023-04-07T11:31:31.142Z,101848.47
2023-04-07T11:34:05.356Z,101850.16
2023-04-07T11:36:35.567Z,101860.38
2023-04-07T11:39:03.061Z,101850.75
2023-04-07T11:41:31.324Z,101853.44
2023-04-07T11:44:09.506Z,101855.22
2023-04-07T11:46:37.458Z,101851.88
2023-04-07T11:49:14.877Z,101853.84
2023-04-07T11:51:43.713Z,101853.97
2023-04-07T11:54:11.128Z,101854.03
2023-04-07T11:56:46.498Z,101855.69
2023-04-07T11:59:24.269Z,101861.75
2023-04-07T12:01:55.335Z,101863.91
2023-04-07T12:04:23.950Z,101862.94
2023-04-07T12:06:51.653Z,101872.72
2023-04-07T12:09:35.992Z,101868.53
2023-04-07T12:12:03.964Z,101878.16
2023-04-07T12:14:30.484Z,101882.13
2023-04-07T12:16:58.228Z,101884.81
2023-04-07T12:19:28.114Z,101884.09
2023-04-07T12:21:55.349Z,101887.34
2023-04-07T12:24:22.307Z,101882.56
2023-04-07T12:26:48.854Z,101882.44
2023-04-07T12:29:17.213Z,101884.00
2023-04-07T12:31:43.941Z,101890.03
2023-04-07T12:34:10.396Z,101893.47
2023-04-07T12:36:37.774Z,101895.00
2023-04-07T12:39:04.681Z,101893.56
2023-04-07T12:41:31.447Z,101900.31
2023-04-07T12:43:57.936Z,101895.06
2023-04-07T12:46:24.553Z,101895.88
2023-04-07T12:48:51.638Z,101900.44
2023-04-07T12:51:18.452Z,101900.59
2023-04-07T12:53:45.017Z,101900.72
2023-04-07T12:56:13.171Z,101897.97
2023-04-07T12:58:40.668Z,101908.38
2023-04-07T13:01:07.908Z,101906.88
2023-04-07T13:03:34.687Z,101912.03
2023-04-07T13:06:01.605Z,101912.69
2023-04-07T13:08:29.234Z,101917.84
2023-04-07T13:10:56.777Z,101913.59
2023-04-07T13:13:23.736Z,101916.41
2023-04-07T13:15:50.523Z,101918.25
2023-04-07T13:18:17.175Z,101915.69
2023-04-07T13:20:45.339Z,101917.56
2023-04-07T13:23:18.669Z,101914.97
2023-04-07T13:25:45.403Z,101925.56
2023-04-07T13:28:11.881Z,101925.84
2023-04-07T13:30:39.523Z,101926.78
2023-04-07T13:33:06.225Z,101925.84
2023-04-07T13:35:35.903Z,101922.34
2023-04-07T13:38:03.703Z,101929.13
2023-04-07T13:40:31.068Z,101927.47
2023-04-07T13:42:58.235Z,101923.38
2023-04-07T13:45:24.761Z,101925.13
2023-04-07T13:47:51.370Z,101928.53
2023-04-07T13:50:17.992Z,101925.91
2023-04-07T13:52:44.419Z,101926.97
2023-04-07T13:55:10.865Z,101933.06
2023-04-07T13:57:37.366Z,101931.38
2023-04-07T14:00:04.278Z,101932.25
2023-04-07T14:02:32.445Z,101930.44
2023-04-07T14:04:59.175Z,101929.97
2023-04-07T14:07:25.911Z,101933.81
2023-04-07T14:09:54.458Z,101929.22
2023-04-07T14:12:23.436Z,101930.78
2023-04-07T14:14:54.713Z,101930.66
2023-04-07T14:17:21.514Z,101934.84
2023-04-07T14:19:48.069Z,101934.31
2023-04-07T14:22:15.430Z,101931.63
2023-04-07T14:24:42.693Z,101942.03
2023-04-07T14:27:09.213Z,101934.09
2023-04-07T14:29:35.861Z,101939.06
2023-04-07T14:32:02.652Z,101942.94
2023-04-07T14:34:29.138Z,101940.25
2023-04-07T14:36:57.191Z,101935.84
2023-04-07T14:39:24.089Z,101936.00
2023-04-07T14:41:52.287Z,101938.69
2023-04-07T14:44:18.741Z,101938.91
2023-04-07T14:46:45.465Z,101942.03
2023-04-07T14:49:13.626Z,101938.63
2023-04-07T14:51:40.472Z,101949.41
2023-04-07T14:54:07.924Z,101945.44
2023-04-07T14:56:34.423Z,101946.75
2023-04-07T14:59:01.135Z,101954.91
2023-04-07T15:01:27.847Z,101946.06
2023-04-07T15:03:54.815Z,101958.50
2023-04-07T15:06:22.227Z,101957.78
2023-04-07T15:08:48.779Z,101959.59
2023-04-07T15:11:15.320Z,101963.03
2023-04-07T15:13:41.793Z,101966.66
2023-04-07T15:16:11.137Z,101969.19
2023-04-07T15:18:39.795Z,101964.91
2023-04-07T15:21:08.738Z,101971.03
2023-04-07T15:23:39.061Z,101972.91
2023-04-07T15:26:06.474Z,101974.81
2023-04-07T15:28:33.259Z,101972.78
2023-04-07T15:31:01.265Z,101970.34
2023-04-07T15:33:27.878Z,101973.94
2023-04-07T15:35:54.351Z,101976.78
2023-04-07T15:38:20.970Z,101976.91
2023-04-07T15:40:47.566Z,101981.25
2023-04-07T15:43:14.519Z,101987.25
2023-04-07T15:45:43.400Z,101987.25
2023-04-07T15:48:11.622Z,101980.38
2023-04-07T15:50:38.215Z,101987.50
2023-04-07T15:53:05.488Z,101985.56
2023-04-07T15:55:33.795Z,101990.53
2023-04-07T15:58:01.315Z,101996.50
2023-04-07T16:00:30.318Z,101984.31
2023-04-07T16:02:57.034Z,101994.78
2023-04-07T16:05:23.605Z,101997.38
2023-04-07T16:07:50.210Z,102001.75
2023-04-07T16:10:19.690Z,102001.88
2023-04-07T16:12:46.987Z,102003.97
2023-04-07T16:15:16.707Z,102000.03
2023-04-07T16:17:48.534Z,102004.56
2023-04-07T16:20:15.825Z,101996.84
2023-04-07T16:22:48.603Z,102008.34
2023-04-07T16:25:16.432Z,102005.69
2023-04-07T16:27:44.930Z,102009.03
2023-04-07T16:30:13.673Z,102008.91
2023-04-07T16:32:43.589Z,102013.28
2023-04-07T16:35:11.386Z,102015.81
2023-04-07T16:37:38.812Z,102015.69
2023-04-07T16:40:06.578Z,102019.34
2023-04-07T16:42:34.103Z,102020.31
2023-04-07T16:45:01.436Z,102023.78
2023-04-07T16:47:29.297Z,102022.97
2023-04-07T16:49:56.892Z,102036.94
2023-04-07T16:52:24.009Z,102033.56
2023-04-07T16:54:51.021Z,102033.56
2023-04-07T16:57:17.498Z,102031.72
2023-04-07T16:59:43.933Z,102035.25
2023-04-07T17:02:13.163Z,102043.13
2023-04-07T17:04:41.094Z,102041.41
2023-04-07T17:07:08.091Z,102047.50
2023-04-07T17:09:34.737Z,102044.16
2023-04-07T17:12:02.040Z,102044.25
2023-04-07T17:14:29.264Z,102049.47
2023-04-07T17:16:56.159Z,102055.53
2023-04-07T17:19:22.694Z,102049.47
2023-04-07T17:21:49.196Z,102053.88
2023-04-07T17:24:16.766Z,102058.19
2023-04-07T17:26:46.616Z,102064.28
2023-04-07T17:29:14.356Z,102061.78
2023-04-07T17:31:41.136Z,102069.00
2023-04-07T17:34:07.800Z,102071.53
2023-04-07T17:36:34.544Z,102076.84
2023-04-07T17:39:01.575Z,102083.13
2023-04-07T17:41:29.082Z,102090.22
2023-04-07T17:43:55.934Z,102082.50
2023-04-07T17:46:23.415Z,102088.44
2023-04-07T17:48:51.827Z,102098.88
2023-04-07T17:51:18.433Z,102096.25
2023-04-07T17:53:45.087Z,102099.09
2023-04-07T17:56:12.656Z,102100.03
2023-04-07T17:58:39.289Z,102106.13
2023-04-07T18:01:09.411Z,102102.59
2023-04-07T18:03:36.898Z,102106.13
2023-04-07T18:06:04.832Z,102111.34
2023-04-07T18:08:31.818Z,102106.97
2023-04-07T18:10:58.471Z,102115.63
2023-04-07T18:13:25.148Z,102118.25
2023-04-07T18:15:51.937Z,102120.94
2023-04-07T18:18:19.822Z,102117.41
2023-04-07T18:20:46.602Z,102127.00
2023-04-07T18:23:13.640Z,102117.59
2023-04-07T18:25:40.236Z,102127.06
2023-04-07T18:28:07.216Z,102127.22
2023-04-07T18:30:33.979Z,102127.31
2023-04-07T18:33:00.796Z,102131.75
2023-04-07T18:35:28.588Z,102127.44
2023-04-07T18:37:55.479Z,102127.56
2023-04-07T18:40:22.207Z,102137.94
2023-04-07T18:42:49.055Z,102134.50
2023-04-07T18:45:15.690Z,102140.75
2023-04-07T18:47:42.185Z,102146.03
2023-04-07T18:50:08.993Z,102152.09
2023-04-07T18:52:35.678Z,102159.13
2023-04-07T18:55:02.199Z,102158.38
2023-04-07T18:57:29.316Z,102161.81
2023-04-07T18:59:55.707Z,102164.34
2023-04-07T19:02:22.282Z,102173.03
2023-04-07T19:04:49.306Z,102178.25
2023-04-07T19:07:15.836Z,102178.25
2023-04-07T19:09:42.500Z,102181.00
2023-04-07T19:12:09.435Z,102187.09
2023-04-07T19:14:35.839Z,102183.69
2023-04-07T19:17:02.424Z,102187.28
2023-04-07T19:19:29.290Z,102179.56
2023-04-07T19:21:55.927Z,102190.81
2023-04-07T19:24:22.342Z,102183.69
2023-04-07T19:26:48.790Z,102182.81
2023-04-07T19:29:15.378Z,102187.19
2023-04-07T19:31:41.931Z,102185.59
2023-04-07T19:34:08.440Z,102190.00
2023-04-07T19:36:34.812Z,102186.53
2023-04-07T19:39:01.262Z,102198.63
2023-04-07T19:41:29.231Z,102201.16
2023-04-07T19:43:55.895Z,102201.97
2023-04-07T19:46:22.542Z,102202.81
2023-04-07T19:48:49.080Z,102209.81
2023-04-07T19:51:15.926Z,102215.00
2023-04-07T19:53:42.368Z,102208.91
2023-04-07T19:56:08.841Z,102209.81
2023-04-07T19:58:35.540Z,102215.88
2023-04-07T20:01:04.389Z,102209.81
2023-04-07T20:03:31.454Z,102215.81
2023-04-07T20:05:58.108Z,102218.47
2023-04-07T20:08:24.514Z,102222.84
2023-04-07T20:10:52.534Z,102228.09
2023-04-07T20:13:20.224Z,102226.41
2023-04-07T20:15:49.044Z,102229.84
2023-04-07T20:18:18.401Z,102221.19
2023-04-07T20:20:45.923Z,102228.09
2023-04-07T20:23:13.533Z,102226.34
2023-04-07T20:25:40.077Z,102234.25
2023-04-07T20:28:06.605Z,102237.78
2023-04-07T20:30:33.202Z,102240.38
2023-04-07T20:32:59.809Z,102237.84
2023-04-07T20:35:26.629Z,102243.06
2023-04-07T20:37:53.211Z,102243.94
2023-04-07T20:40:20.971Z,102250.03
2023-04-07T20:42:47.475Z,102239.56
2023-04-07T20:45:13.944Z,102243.94
2023-04-07T20:47:40.565Z,102247.41
2023-04-07T20:50:08.239Z,102248.31
2023-04-07T20:52:39.427Z,102250.91
2023-04-07T20:55:07.235Z,102254.28
2023-04-07T20:57:33.791Z,102253.41
2023-04-07T21:00:00.872Z,102257.75
2023-04-07T21:02:27.543Z,102256.88
2023-04-07T21:04:54.086Z,102256.88
2023-04-07T21:07:20.716Z,102255.13
2023-04-07T21:09:47.224Z,102260.38
2023-04-07T21:12:14.187Z,102265.59
2023-04-07T21:14:40.778Z,102262.97
2023-04-07T21:17:07.389Z,102267.31
2023-04-07T21:19:33.906Z,102258.56
2023-04-07T21:22:00.980Z,102258.56
2023-04-07T21:24:27.464Z,102261.19
2023-04-07T21:26:54.499Z,102262.09
2023-04-07T21:29:22.084Z,102258.63
2023-04-07T21:31:48.928Z,102267.31
2023-04-07T21:34:15.477Z,102269.84
2023-04-07T21:36:42.117Z,102265.59
2023-04-07T21:39:08.995Z,102265.66
2023-04-07T21:41:35.679Z,102269.19
2023-04-07T21:44:02.260Z,102267.59
2023-04-07T21:46:29.203Z,102270.31
2023-04-07T21:48:55.757Z,102272.91
2023-04-07T21:51:22.619Z,102270.41
2023-04-07T21:53:49.216Z,102267.06
2023-04-07T21:56:15.733Z,102263.78
2023-04-07T21:58:42.294Z,102271.72
2023-04-07T22:01:08.873Z,102277.09
2023-04-07T22:03:35.533Z,102270.31
2023-04-07T22:06:02.383Z,102267.94
2023-04-07T22:08:28.950Z,102273.31
2023-04-07T22:10:55.493Z,102275.25
2023-04-07T22:13:22.064Z,102274.38
2023-04-07T22:15:48.552Z,102282.09
2023-04-07T22:18:15.090Z,102288.94
2023-04-07T22:20:41.807Z,102294.97
2023-04-07T22:23:08.178Z,102294.97
2023-04-07T22:25:34.942Z,102299.31
2023-04-07T22:28:01.534Z,102293.19
2023-04-07T22:30:28.021Z,102306.25
2023-04-07T22:32:54.544Z,102301.94
2023-04-07T22:35:21.063Z,102308.06
2023-04-07T22:37:47.539Z,102302.88
2023-04-07T22:40:14.005Z,102304.63
2023-04-07T22:42:40.649Z,102314.97
2023-04-07T22:45:07.750Z,102319.25
2023-04-07T22:47:34.264Z,102320.13
2023-04-07T22:50:00.743Z,102321.03
2023-04-07T22:52:27.221Z,102328.91
2023-04-07T22:54:53.795Z,102318.56
2023-04-07T22:57:20.514Z,102329.94
2023-04-07T22:59:46.946Z,102325.72
2023-04-07T23:02:13.445Z,102325.75
2023-04-07T23:04:40.009Z,102329.19
2023-04-07T23:07:06.683Z,102333.53
2023-04-07T23:09:33.170Z,102330.94
2023-04-07T23:11:59.640Z,102334.41
2023-04-07T23:14:26.165Z,102329.34
2023-04-07T23:16:56.087Z,102334.56
2023-04-07T23:19:22.779Z,102332.00
2023-04-07T23:21:49.390Z,102333.88
2023-04-07T23:24:16.111Z,102327.88
2023-04-07T23:26:42.526Z,102335.72
2023-04-07T23:29:09.006Z,102335.09
2023-04-07T23:31:35.879Z,102337.78
2023-04-07T23:34:04.228Z,102337.88
2023-04-07T23:36:31.466Z,102343.16
2023-04-07T23:38:57.930Z,102344.97
2023-04-07T23:41:24.510Z,102345.06
2023-04-07T23:43:51.025Z,102349.53
2023-04-07T23:46:17.550Z,102347.81
2023-04-07T23:48:44.113Z,102340.06
2023-04-07T23:51:10.696Z,102346.13
2023-04-07T23:53:37.262Z,102350.56
2023-04-07T23:56:03.782Z,102349.66
2023-04-07T23:58:30.402Z,102352.19
